Pagina principale
METAR-TAF:

METAR-TAF

Aeroporti :

Luni

Sarzana, Italia

latitudine: 44-05N, longitudine: 009-59E, altezza: 9 m

Osservazione

Il bollettino è stato emesso 32 minuti fa, alle 14:55 UTC
Temperature 15°C
Umidità 77%
Pressione 1006 hPa
Visibilità 10 km o più
Poco nuvoloso ad un'altezza di 2500 ft
Nubi sparse ad un'altezza di 3000 ft

METAR: LIQW 091455Z /////KT 9999 FEW025 SCT030 15/11 Q1006 RMK BKN VIS MIN 9999 WIND THR18 19003KT BLU

Ora: 16:27 (15:27 UTC)

Previsione

Il bollettino è stato emesso 4 ore e 27 minuti fa, alle 11:00 UTC
Previsione valida dal 09 alle 12 UTC al 09 alle 21 UTC
Vento 6 kt da ovest/sud-ovest
Visibilità: 8000 m
Nubi sparse ad un'altezza di 3500 ft
Evoluzione graduale
dal 09 alle 09 UTC al 09 alle 11 UTC
Vento 6 kt da ovest/sud-ovest

TAF: LIQW 091100Z 0912/0921 24006KT 8000 SCT035 BECMG 0909/0911 24006KT

Osservazioni e previsioni meteorologiche di più di 4000 aeroporti (messaggi METAR e TAF).

Le stazioni disponibili sono rappresentate dai dischi gialli e rossi sulla carta.

Puntare il mouse per vedere il nome della stazione.

Clicca sopra per visualizzare le osservazioni e previsioni meteorologiche.

Per cambiare la mappa : fare clic sui pulsanti verdi con una croce nera per ingrandire, il pulsante verde con un trattino per diminuire, o sulla freccia verde per le mappe adiacenti.


METAR-TAF: